createdAt,value
2016-07-29T05:04:53.071Z,54.69
2016-07-29T05:05:53.104Z,54.88
2016-07-29T05:06:53.129Z,54.88
2016-07-29T05:07:53.153Z,54.88
2016-07-29T05:08:53.183Z,54.6
2016-07-29T05:09:53.913Z,54.6
2016-07-29T05:10:53.248Z,54.88
2016-07-29T05:11:53.263Z,55.18
2016-07-29T05:12:53.285Z,55.27
2016-07-29T05:13:53.317Z,55.08
2016-07-29T05:14:53.343Z,54.6
2016-07-29T05:15:53.370Z,55.08
2016-07-29T05:16:53.399Z,55.18
2016-07-29T05:17:53.423Z,54.6
2016-07-29T05:18:53.452Z,55.08
2016-07-29T05:19:53.477Z,55.08
2016-07-29T05:20:53.504Z,55.27
2016-07-29T05:21:53.532Z,55.08
2016-07-29T05:22:53.554Z,55.2
2016-07-29T05:23:53.701Z,55.08
2016-07-29T05:24:53.610Z,55.27
2016-07-29T05:25:53.746Z,55.27
2016-07-29T05:26:53.757Z,55.01
2016-07-29T05:27:53.792Z,55.01
2016-07-29T05:28:53.718Z,55.49
2016-07-29T05:29:53.795Z,55.3
2016-07-29T05:30:53.877Z,54.72
2016-07-29T05:31:53.875Z,55.59
2016-07-29T05:32:53.873Z,55.59
2016-07-29T05:33:53.881Z,55.3
2016-07-29T05:34:53.889Z,54.91
2016-07-29T05:35:53.907Z,54.53
2016-07-29T05:36:54.020Z,54.53
2016-07-29T05:37:54.033Z,55.3
2016-07-29T05:38:54.056Z,55.01
2016-07-29T05:39:54.066Z,55.1
2016-07-29T05:40:54.073Z,55.3
2016-07-29T05:41:54.081Z,55.3
2016-07-29T05:42:54.096Z,55.59
2016-07-29T05:43:54.119Z,55.59
2016-07-29T05:44:54.145Z,55.4
2016-07-29T05:45:54.175Z,55.49
2016-07-29T05:46:54.199Z,55.49
2016-07-29T05:47:54.226Z,55.49
2016-07-29T05:48:54.255Z,55.59
2016-07-29T05:49:54.285Z,55.59
2016-07-29T05:50:54.307Z,55.49
2016-07-29T05:51:54.343Z,55.68
2016-07-29T05:52:55.064Z,55.59
2016-07-29T05:53:54.391Z,55.49
2016-07-29T05:54:54.414Z,55.59
2016-07-29T05:55:55.147Z,55.78
2016-07-29T05:56:54.468Z,55.68
2016-07-29T05:57:54.495Z,55.59
2016-07-29T05:58:54.524Z,55.4
2016-07-29T05:59:54.561Z,55.2
2016-07-29T06:00:54.576Z,55.01
2016-07-29T06:01:54.604Z,55.2
2016-07-29T06:02:54.629Z,55.3
2016-07-29T06:03:54.661Z,54.62
2016-07-29T06:04:54.684Z,54.53
2016-07-29T06:05:54.765Z,55.4
2016-07-29T06:06:54.773Z,55.3
2016-07-29T06:07:54.833Z,55.3
2016-07-29T06:08:54.841Z,54.91
2016-07-29T06:09:54.813Z,55.4
2016-07-29T06:10:54.846Z,55.01
2016-07-29T06:11:54.874Z,55.49
2016-07-29T06:12:54.894Z,55.4
2016-07-29T06:13:54.942Z,55.3
2016-07-29T06:14:54.950Z,55.1
2016-07-29T06:15:54.977Z,55.2
2016-07-29T06:16:55.010Z,55.1
2016-07-29T06:17:55.038Z,55.33
2016-07-29T06:18:55.058Z,55.1
2016-07-29T06:19:55.083Z,55.33
2016-07-29T06:20:55.116Z,54.94
2016-07-29T06:21:55.139Z,54.62
2016-07-29T06:22:55.163Z,55.42
2016-07-29T06:23:55.192Z,55.42
2016-07-29T06:24:55.324Z,55.04
2016-07-29T06:25:55.246Z,55.23
2016-07-29T06:26:55.275Z,55.52
2016-07-29T06:27:55.300Z,55.42
2016-07-29T06:28:55.325Z,55.23
2016-07-29T06:29:55.358Z,54.84
2016-07-29T06:30:55.379Z,55.33
2016-07-29T06:31:55.406Z,55.33
2016-07-29T06:32:55.433Z,54.84
2016-07-29T06:33:55.463Z,55.13
2016-07-29T06:34:55.486Z,54.84
2016-07-29T06:35:55.516Z,55.33
2016-07-29T06:36:55.541Z,55.23
2016-07-29T06:37:55.573Z,54.84
2016-07-29T06:38:55.715Z,55.23
2016-07-29T06:39:55.624Z,55.33
2016-07-29T06:40:55.653Z,54.65
2016-07-29T06:41:55.678Z,55.33
2016-07-29T06:42:55.703Z,55.13
2016-07-29T06:43:55.731Z,55.33
2016-07-29T06:44:55.759Z,55.33
2016-07-29T06:45:55.784Z,55.13
2016-07-29T06:46:55.812Z,55.42
2016-07-29T06:47:55.839Z,55.33
2016-07-29T06:48:55.865Z,55.04
2016-07-29T06:49:55.894Z,55.42
2016-07-29T06:50:55.921Z,54.65
2016-07-29T06:51:55.950Z,54.65
2016-07-29T06:52:55.989Z,55.33
2016-07-29T06:53:56.002Z,54.65
2016-07-29T06:54:56.029Z,54.94
2016-07-29T06:55:56.056Z,54.65
2016-07-29T06:56:56.082Z,54.75
2016-07-29T06:57:56.112Z,55.16
2016-07-29T06:58:56.136Z,54.49
2016-07-29T06:59:56.162Z,54.58
2016-07-29T07:00:56.189Z,54.68
2016-07-29T07:01:56.219Z,54.87
2016-07-29T07:02:56.246Z,54.87
2016-07-29T07:03:56.278Z,54.97
2016-07-29T07:04:56.300Z,55.07
2016-07-29T07:05:56.327Z,55.16
2016-07-29T07:06:56.359Z,55.26
2016-07-29T07:07:56.381Z,54.77
2016-07-29T07:08:57.117Z,54.87
2016-07-29T07:10:15.656Z,54.87
2016-07-29T07:10:56.463Z,54.19
2016-07-29T07:11:56.498Z,54.58
2016-07-29T07:12:56.638Z,54.58
2016-07-29T07:13:56.647Z,54.87
2016-07-29T07:14:56.682Z,54.32
2016-07-29T07:15:56.679Z,54.51
2016-07-29T07:16:56.687Z,54.41
2016-07-29T07:17:56.755Z,54.13
2016-07-29T07:18:56.683Z,54.32
2016-07-29T07:19:56.709Z,53.93
2016-07-29T07:20:56.738Z,54.03
2016-07-29T07:21:56.763Z,53.16
2016-07-29T07:22:56.800Z,53.93
2016-07-29T07:23:56.820Z,54.13
2016-07-29T07:24:56.848Z,53.45
2016-07-29T07:25:56.874Z,53.93
2016-07-29T07:26:56.899Z,53.93
2016-07-29T07:27:57.639Z,53.57
2016-07-29T07:28:56.955Z,54.05
2016-07-29T07:29:56.982Z,53.67
2016-07-29T07:30:57.009Z,53.28
2016-07-29T07:31:57.036Z,53.77
2016-07-29T07:32:57.064Z,53.28
2016-07-29T07:33:57.089Z,53.77
2016-07-29T07:34:57.117Z,53.38
2016-07-29T07:35:57.146Z,53.86
2016-07-29T07:36:57.172Z,53.67
2016-07-29T07:37:57.200Z,53.57
2016-07-29T07:38:57.228Z,53.47
2016-07-29T07:39:57.253Z,53.11
2016-07-29T07:40:57.284Z,53.11
2016-07-29T07:41:57.310Z,53.02
2016-07-29T07:42:57.337Z,53.02
2016-07-29T07:43:57.367Z,53.02
2016-07-29T07:44:57.400Z,53.21
2016-07-29T07:45:57.421Z,52.73
2016-07-29T07:46:57.450Z,52.82
2016-07-29T07:47:57.473Z,52.73
2016-07-29T07:48:57.502Z,52.53
2016-07-29T07:49:57.639Z,52.44
2016-07-29T07:50:57.670Z,52.53
2016-07-29T07:51:57.584Z,52.14
2016-07-29T07:52:57.612Z,52.05
2016-07-29T07:53:57.644Z,52.17
2016-07-29T07:54:57.666Z,52.05
2016-07-29T07:55:57.694Z,51.68
2016-07-29T07:56:57.721Z,51.88
2016-07-29T07:57:57.750Z,51.3
2016-07-29T07:58:57.781Z,51.59
2016-07-29T07:59:57.804Z,51.2
2016-07-29T08:00:57.907Z,51.5
2016-07-29T08:01:57.862Z,51.1
2016-07-29T08:02:57.886Z,50.92
2016-07-29T08:03:57.919Z,51.1
2016-07-29T08:04:57.948Z,51.1
2016-07-29T08:05:57.968Z,50.62
2016-07-29T08:06:58.000Z,50.62
2016-07-29T08:07:58.031Z,50.14
2016-07-29T08:08:58.063Z,50.35
2016-07-29T08:09:58.082Z,49.87
2016-07-29T08:10:58.111Z,49.77
2016-07-29T08:11:58.139Z,49.77
2016-07-29T08:12:58.168Z,49.77
2016-07-29T08:13:58.396Z,49.87
2016-07-29T08:14:58.237Z,49.68
2016-07-29T08:15:58.252Z,49.68
2016-07-29T08:16:58.278Z,49.68
2016-07-29T08:17:58.308Z,49.87
2016-07-29T08:18:58.336Z,49.87
2016-07-29T08:19:58.362Z,49.32
2016-07-29T08:20:58.397Z,49.29
2016-07-29T08:21:58.418Z,49.12
2016-07-29T08:22:58.446Z,49.02
2016-07-29T08:23:58.473Z,48.64
2016-07-29T08:24:58.502Z,48.93
2016-07-29T08:25:58.532Z,48.44
2016-07-29T08:26:58.558Z,48.74
2016-07-29T08:27:58.585Z,48.37
2016-07-29T08:28:58.616Z,48.85
2016-07-29T08:29:58.645Z,48.57
2016-07-29T08:30:58.668Z,48.27
2016-07-29T08:31:58.701Z,48.08
2016-07-29T08:32:58.725Z,47.89
2016-07-29T08:33:58.753Z,48.18
2016-07-29T08:34:58.783Z,47.98
2016-07-29T08:35:58.812Z,48.18
2016-07-29T08:36:58.837Z,47.6
2016-07-29T08:37:58.868Z,47.6
2016-07-29T08:38:58.896Z,47.98
2016-07-29T08:39:59.630Z,48.2
2016-07-29T08:40:59.105Z,47.72
2016-07-29T08:41:59.008Z,47.81
2016-07-29T08:42:59.007Z,47.52
2016-07-29T08:43:59.037Z,47.33
2016-07-29T08:44:59.065Z,47.33
2016-07-29T08:45:59.804Z,46.75
2016-07-29T08:46:59.125Z,47.23
2016-07-29T08:47:59.160Z,46.67
2016-07-29T08:48:59.182Z,46.86
2016-07-29T08:49:59.208Z,46.77
2016-07-29T08:50:59.239Z,46.67
2016-07-29T08:51:59.264Z,46.38
2016-07-29T08:52:59.295Z,46.28
2016-07-29T08:53:59.322Z,46.48
2016-07-29T08:54:59.361Z,46.19
2016-07-29T08:55:59.388Z,46.38
2016-07-29T08:56:59.407Z,45.99
2016-07-29T08:57:59.437Z,45.99
2016-07-29T08:58:59.469Z,45.89
2016-07-29T08:59:59.494Z,45.8
2016-07-29T09:00:59.523Z,45.89
2016-07-29T09:01:59.551Z,45.82
2016-07-29T09:02:59.585Z,45.62
2016-07-29T09:03:59.613Z,45.31
2016-07-29T09:04:59.782Z,45.41
2016-07-29T09:05:59.670Z,45.21
2016-07-29T09:06:59.697Z,45.31
2016-07-29T09:07:59.725Z,45.51
2016-07-29T09:08:59.754Z,45.21
2016-07-29T09:09:59.783Z,44.95
2016-07-29T09:10:59.837Z,44.85
2016-07-29T09:11:59.843Z,44.75
2016-07-29T09:12:59.871Z,44.75
2016-07-29T09:13:59.899Z,44.56
2016-07-29T09:14:59.934Z,44.17
2016-07-29T09:15:59.955Z,44.07
2016-07-29T09:16:59.987Z,43.88
2016-07-29T09:18:00.019Z,43.78
2016-07-29T09:19:00.047Z,44.07
2016-07-29T09:20:00.071Z,43.3
2016-07-29T09:21:00.104Z,43.8
2016-07-29T09:22:00.131Z,43.71
2016-07-29T09:23:00.158Z,43.22
2016-07-29T09:24:00.187Z,43.02
2016-07-29T09:25:00.219Z,42.44
2016-07-29T09:26:00.253Z,42.46
2016-07-29T09:27:00.276Z,42.18
2016-07-29T09:28:00.306Z,42.36
2016-07-29T09:29:00.334Z,42.27
2016-07-29T09:30:01.087Z,41.69
2016-07-29T09:31:00.392Z,41.49
2016-07-29T09:32:00.427Z,41.3
2016-07-29T09:33:00.455Z,40.91
2016-07-29T09:34:00.503Z,40.54
2016-07-29T09:35:00.510Z,40.25
2016-07-29T09:36:00.545Z,39.96
2016-07-29T09:37:00.572Z,39.76
2016-07-29T09:38:00.601Z,39.57
2016-07-29T09:39:00.629Z,39.57
2016-07-29T09:40:00.661Z,39.37
2016-07-29T09:41:00.697Z,39.29
2016-07-29T09:42:00.726Z,39.1
2016-07-29T09:43:00.748Z,39.2
2016-07-29T09:44:00.784Z,39
2016-07-29T09:45:00.829Z,39.1
2016-07-29T09:46:00.842Z,38.91
2016-07-29T09:47:00.871Z,38.91
2016-07-29T09:48:00.896Z,38.91
2016-07-29T09:50:00.957Z,39.1
2016-07-29T09:51:00.992Z,39.1
2016-07-29T09:52:01.026Z,39
2016-07-29T09:53:01.048Z,38.81
2016-07-29T09:54:01.075Z,38.91
2016-07-29T09:55:01.103Z,38.71
2016-07-29T09:56:01.135Z,38.81
2016-07-29T09:57:01.169Z,38.81
2016-07-29T09:58:01.199Z,38.71
2016-07-29T09:59:01.224Z,38.71
2016-07-29T10:00:01.257Z,38.81
2016-07-29T10:01:01.285Z,39.1
2016-07-29T10:02:01.321Z,38.62
2016-07-29T10:03:01.348Z,38.81
2016-07-29T10:05:01.406Z,38.71
2016-07-29T10:06:01.440Z,38.64
2016-07-29T10:07:01.462Z,38.13
2016-07-29T10:08:01.495Z,38.42
2016-07-29T10:09:01.533Z,38.42
2016-07-29T10:10:01.552Z,38.15
2016-07-29T10:11:01.586Z,37.95
2016-07-29T10:12:01.618Z,38.44
2016-07-29T10:13:01.645Z,38.05
2016-07-29T10:14:01.675Z,38.24
2016-07-29T10:15:01.708Z,37.95
2016-07-29T10:16:01.735Z,38.24
2016-07-29T10:17:01.764Z,38.15
2016-07-29T10:18:01.796Z,38.24
2016-07-29T10:19:01.832Z,38.05
2016-07-29T10:20:01.855Z,38.15
2016-07-29T10:21:01.888Z,37.85
2016-07-29T10:22:01.921Z,37.95
2016-07-29T10:23:01.947Z,38.05
2016-07-29T10:24:01.987Z,38.15
2016-07-29T10:25:02.008Z,38.15
2016-07-29T10:26:02.038Z,37.56
2016-07-29T10:27:02.065Z,37.56
2016-07-29T10:28:02.100Z,36.98
2016-07-29T10:29:02.129Z,37.27
2016-07-29T10:30:02.158Z,37.37
2016-07-29T10:31:02.190Z,37.37
2016-07-29T10:32:02.943Z,37.27
2016-07-29T10:33:02.251Z,37.46
2016-07-29T10:34:02.295Z,37.66
2016-07-29T10:35:02.314Z,37.95
2016-07-29T10:36:02.457Z,37.95
2016-07-29T10:37:02.465Z,38.05
2016-07-29T10:38:02.628Z,37.58
2016-07-29T10:39:02.637Z,36.88
2016-07-29T10:40:03.545Z,36.9
2016-07-29T10:41:02.650Z,37
2016-07-29T10:42:02.696Z,37.58
2016-07-29T10:43:02.671Z,37
2016-07-29T10:44:02.680Z,36.9
2016-07-29T10:45:02.811Z,37.29
2016-07-29T10:46:02.847Z,37.19
2016-07-29T10:47:02.870Z,37.21
2016-07-29T10:48:02.795Z,36.92
2016-07-29T10:49:02.806Z,37.02
2016-07-29T10:50:02.991Z,36.72
2016-07-29T10:51:02.823Z,37.12
2016-07-29T10:52:02.834Z,36.53
2016-07-29T10:53:02.866Z,35.94
2016-07-29T10:54:02.907Z,36.04
2016-07-29T10:55:02.922Z,36.04
2016-07-29T10:56:02.965Z,36.04
2016-07-29T10:57:02.986Z,35.67
2016-07-29T10:58:03.102Z,35.65
2016-07-29T10:59:03.051Z,35.86
2016-07-29T11:00:03.082Z,35.77
2016-07-29T11:01:03.110Z,35.57
2016-07-29T11:02:03.146Z,35.86
2016-07-29T11:03:03.174Z,35.57
2016-07-29T11:04:03.262Z,35.86
2016-07-29T11:05:03.235Z,35.47
2016-07-29T11:06:03.269Z,35.67
2016-07-29T11:07:03.300Z,35.77
2016-07-29T11:08:03.327Z,35.86
2016-07-29T11:09:03.366Z,35.67
2016-07-29T11:10:03.410Z,35.86
2016-07-29T11:11:03.422Z,35.77
2016-07-29T11:12:03.455Z,35.49
2016-07-29T11:13:04.194Z,34.52
2016-07-29T11:14:03.517Z,34.61
2016-07-29T11:15:04.252Z,34.32
2016-07-29T11:16:03.577Z,34.42
2016-07-29T11:17:03.608Z,34.03
2016-07-29T11:18:03.650Z,34.03
2016-07-29T11:19:03.679Z,33.64
2016-07-29T11:20:03.706Z,33.73
2016-07-29T11:21:03.734Z,34.44
2016-07-29T11:22:04.489Z,34.24
2016-07-29T11:23:03.798Z,34.53
2016-07-29T11:24:03.829Z,34.34
2016-07-29T11:25:03.862Z,34.14
2016-07-29T11:26:04.603Z,33.95
2016-07-29T11:27:03.974Z,33.46
2016-07-29T11:28:04.665Z,33.95
2016-07-29T11:29:03.987Z,33.77
2016-07-29T11:30:04.020Z,33.97
2016-07-29T11:31:04.049Z,33.67
2016-07-29T11:32:04.081Z,33.09
2016-07-29T11:33:04.113Z,32.89
2016-07-29T11:34:04.146Z,32.99
2016-07-29T11:35:04.174Z,32.52
2016-07-29T11:36:04.919Z,32.23
2016-07-29T11:37:04.241Z,32.13
2016-07-29T11:38:04.270Z,32.23
2016-07-29T11:39:04.304Z,32.32
2016-07-29T11:40:04.333Z,32.23
2016-07-29T11:41:04.381Z,32.13
2016-07-29T11:42:04.398Z,31.84
2016-07-29T11:43:04.436Z,31.54
2016-07-29T11:44:04.471Z,31.64
2016-07-29T11:45:04.495Z,31.74
2016-07-29T11:46:04.527Z,31.54
2016-07-29T11:47:04.559Z,31.64
2016-07-29T11:48:04.592Z,31.64
2016-07-29T11:49:04.621Z,31.64
2016-07-29T11:50:04.653Z,31.64
2016-07-29T11:51:04.689Z,31.74
2016-07-29T11:52:04.718Z,31.72
2016-07-29T11:53:04.749Z,32.11
2016-07-29T11:54:04.781Z,32.42
2016-07-29T11:55:04.817Z,33.09
2016-07-29T11:56:04.844Z,33.01
2016-07-29T11:57:04.878Z,32.71
2016-07-29T11:58:04.910Z,33.01
2016-07-29T11:59:04.944Z,32.91
2016-07-29T12:00:04.978Z,33.12
2016-07-29T12:01:05.006Z,32.34
2016-07-29T12:02:05.039Z,32.14
2016-07-29T12:03:05.070Z,32.24
2016-07-29T12:04:05.101Z,32.14
2016-07-29T12:05:05.135Z,32.24
2016-07-29T12:06:05.167Z,32.26
2016-07-29T12:07:05.198Z,32.06
2016-07-29T12:08:05.229Z,31.87
2016-07-29T12:09:05.264Z,31.87
2016-07-29T12:10:05.296Z,31.78
2016-07-29T12:11:05.325Z,31.49
2016-07-29T12:12:05.410Z,31.6
2016-07-29T12:13:05.393Z,31.11
2016-07-29T12:14:05.428Z,31.11
2016-07-29T12:15:05.468Z,30.62
2016-07-29T12:16:05.490Z,30.82
2016-07-29T12:17:05.520Z,30.43
2016-07-29T12:18:05.555Z,30.62
2016-07-29T12:19:05.586Z,30.15
2016-07-29T12:20:05.630Z,29.95
2016-07-29T12:21:05.654Z,30.05
2016-07-29T12:22:05.684Z,29.17
2016-07-29T12:23:05.717Z,29.46
2016-07-29T12:24:05.752Z,29.27
2016-07-29T12:25:05.784Z,28.97
2016-07-29T12:26:05.815Z,29.36
2016-07-29T12:27:05.849Z,29.17
2016-07-29T12:28:05.880Z,28.49
2016-07-29T12:29:05.917Z,28.68
2016-07-29T12:30:05.945Z,28.58
2016-07-29T12:31:05.981Z,28.68
2016-07-29T12:32:06.015Z,29.28
2016-07-29T12:33:06.047Z,28.97
2016-07-29T12:34:06.079Z,29.28
2016-07-29T12:35:06.115Z,29.07
2016-07-29T12:36:06.149Z,28.88
2016-07-29T12:37:06.229Z,28.79
2016-07-29T12:38:06.210Z,29.07
2016-07-29T12:39:06.243Z,28.88
2016-07-29T12:40:06.275Z,28.97
2016-07-29T12:41:06.512Z,28.88
2016-07-29T12:42:06.346Z,28.68
2016-07-29T12:43:06.381Z,28.58
2016-07-29T12:44:06.409Z,28
2016-07-29T12:45:07.152Z,28.58
2016-07-29T12:46:06.475Z,27.9
2016-07-29T12:47:06.517Z,28.38
2016-07-29T12:48:06.541Z,28.28
2016-07-29T12:49:06.576Z,27.98
2016-07-29T12:50:07.315Z,28.28
2016-07-29T12:51:06.645Z,27.98
2016-07-29T12:52:06.676Z,28.47
2016-07-29T12:53:06.707Z,28.47
2016-07-29T12:54:06.741Z,29.17
2016-07-29T12:55:06.774Z,28.68
2016-07-29T12:56:06.807Z,28.97
2016-07-29T12:57:06.841Z,28.39
2016-07-29T12:58:06.922Z,28.09
2016-07-29T12:59:06.909Z,28.09
2016-07-29T13:00:06.940Z,28.19
2016-07-29T13:01:06.975Z,28.19
2016-07-29T13:02:07.007Z,28.09
2016-07-29T13:03:07.040Z,28.19
2016-07-29T13:04:07.136Z,28.19
2016-07-29T13:05:07.112Z,28.19
2016-07-29T13:06:07.140Z,28
2016-07-29T13:07:07.177Z,28.19
2016-07-29T13:08:07.211Z,28.29
2016-07-29T13:09:07.239Z,28.08
2016-07-29T13:10:08.030Z,28.28
2016-07-29T13:11:07.307Z,28.18
2016-07-29T13:12:07.542Z,28.28
2016-07-29T13:13:07.375Z,28.18
2016-07-29T13:14:07.408Z,28.18
2016-07-29T13:15:07.438Z,28.08
2016-07-29T13:16:07.472Z,28.18
2016-07-29T13:17:07.506Z,27.98
2016-07-29T13:18:07.564Z,28.67
2016-07-29T13:19:07.573Z,28.47
2016-07-29T13:20:07.607Z,28.18
2016-07-29T13:21:07.639Z,27.88
2016-07-29T13:22:07.671Z,28.39
2016-07-29T13:23:07.704Z,28.29
2016-07-29T13:24:07.739Z,28.39
2016-07-29T13:25:07.771Z,28.2
2016-07-29T13:26:07.805Z,28.2
2016-07-29T13:27:07.840Z,28.11
2016-07-29T13:28:07.870Z,27.81
2016-07-29T13:29:07.907Z,27.91
2016-07-29T13:30:07.943Z,27.04
2016-07-29T13:31:07.971Z,27.34
2016-07-29T13:32:08.011Z,27.53
2016-07-29T13:33:08.039Z,27.04
2016-07-29T13:34:08.085Z,26.55
2016-07-29T13:35:08.106Z,26.46
2016-07-29T13:36:08.140Z,26.46
2016-07-29T13:37:08.173Z,26.56
2016-07-29T13:38:08.208Z,25.88
2016-07-29T13:39:08.514Z,25.5
2016-07-29T13:40:08.275Z,25.5
2016-07-29T13:41:08.307Z,25.4
2016-07-29T13:42:08.343Z,25.4
2016-07-29T13:43:08.380Z,25.4
2016-07-29T13:44:08.407Z,25.01
2016-07-29T13:45:08.571Z,24.71
2016-07-29T13:46:08.476Z,24.63
2016-07-29T13:47:09.283Z,25.42
2016-07-29T13:48:08.544Z,24.92
2016-07-29T13:49:08.577Z,24.92
2016-07-29T13:50:08.611Z,24.24
2016-07-29T13:51:08.645Z,24.54
2016-07-29T13:52:08.678Z,23.95
2016-07-29T13:53:08.715Z,23.75
2016-07-29T13:54:08.746Z,24.05
2016-07-29T13:55:08.780Z,23.77
2016-07-29T13:56:08.815Z,23.66
2016-07-29T13:57:09.566Z,23.47
2016-07-29T13:58:08.884Z,23.28
2016-07-29T13:59:08.918Z,24.16
2016-07-29T14:00:08.954Z,24.36
2016-07-29T14:01:08.992Z,24.26
2016-07-29T14:02:09.026Z,24.26
2016-07-29T14:03:09.811Z,23.77
2016-07-29T14:04:09.290Z,23.67
2016-07-29T14:05:09.122Z,23.49
2016-07-29T14:06:09.160Z,23.19
2016-07-29T14:07:09.194Z,23.29
2016-07-29T14:08:09.392Z,23.29
2016-07-29T14:09:09.259Z,23.39
2016-07-29T14:10:09.296Z,23.39
2016-07-29T14:11:09.336Z,23.09
2016-07-29T14:12:09.363Z,23.2
2016-07-29T14:13:09.394Z,23.1
2016-07-29T14:14:09.434Z,23.1
2016-07-29T14:15:09.471Z,23.3
2016-07-29T14:16:09.503Z,22.99
2016-07-29T14:17:09.540Z,23.39
2016-07-29T14:18:09.570Z,23.09
2016-07-29T14:19:09.605Z,23.57
2016-07-29T14:20:09.632Z,23.67
2016-07-29T14:21:09.725Z,23.67
2016-07-29T14:22:09.921Z,24.26
2016-07-29T14:23:09.742Z,24.64
2016-07-29T14:24:09.777Z,24.35
2016-07-29T14:25:09.814Z,24.64
2016-07-29T14:26:09.848Z,24.53
2016-07-29T14:27:09.893Z,24.73
2016-07-29T14:28:09.915Z,24.63
2016-07-29T14:29:10.004Z,24.82
2016-07-29T14:30:09.984Z,24.73
2016-07-29T14:31:10.020Z,24.33
2016-07-29T14:32:10.055Z,24.04
2016-07-29T14:33:10.091Z,24.63
2016-07-29T14:34:10.125Z,24.53
2016-07-29T14:36:10.906Z,24.32
2016-07-29T14:37:10.233Z,24.13
2016-07-29T14:38:10.264Z,24.52
2016-07-29T14:39:10.299Z,24.62
2016-07-29T14:40:10.339Z,24.32
2016-07-29T14:41:10.366Z,24.42
2016-07-29T14:42:10.402Z,24.51
2016-07-29T14:43:10.498Z,24.51
2016-07-29T14:44:10.468Z,24.7
2016-07-29T14:45:10.504Z,25.1
2016-07-29T14:46:10.538Z,25.39
2016-07-29T14:47:10.575Z,25.09
2016-07-29T14:48:10.608Z,24.4
2016-07-29T14:49:10.645Z,24.98
2016-07-29T14:50:10.682Z,24.98
2016-07-29T14:51:10.713Z,24.98
2016-07-29T14:52:10.744Z,25.18
2016-07-29T14:53:11.498Z,24.77
2016-07-29T14:54:10.812Z,25.07
2016-07-29T14:55:10.861Z,25.17
2016-07-29T14:56:10.882Z,25.37
2016-07-29T14:57:10.917Z,25.46
2016-07-29T14:58:11.005Z,25.37
2016-07-29T14:59:11.184Z,25.26
2016-07-29T15:00:11.128Z,25.65
2016-07-29T15:01:11.052Z,25.55
2016-07-29T15:02:11.088Z,25.45
2016-07-29T15:03:11.120Z,25.45
2016-07-29T15:04:11.863Z,25.44
2016-07-29T15:05:11.189Z,25.16
2016-07-29T15:06:11.226Z,25.45
2016-07-29T15:07:11.260Z,25.44
2016-07-29T15:08:11.293Z,25.24
2016-07-29T15:09:11.325Z,25.44
2016-07-29T15:10:11.359Z,25.83
2016-07-29T15:11:11.392Z,25.83
2016-07-29T15:12:11.429Z,25.93
2016-07-29T15:13:11.461Z,26.31
2016-07-29T15:14:11.492Z,26.5
2016-07-29T15:15:12.300Z,26.99
2016-07-29T15:16:11.562Z,27.38
2016-07-29T15:17:11.593Z,27.19
2016-07-29T15:18:11.630Z,27.48
2016-07-29T15:19:11.678Z,26.88
2016-07-29T15:20:11.697Z,27.17
2016-07-29T15:21:11.730Z,28.15
2016-07-29T15:22:11.794Z,28.34
2016-07-29T15:23:11.798Z,28.74
2016-07-29T15:24:11.831Z,28.83
2016-07-29T15:25:11.874Z,28.92
2016-07-29T15:26:11.936Z,29.6
2016-07-29T15:27:11.931Z,29.7
2016-07-29T15:28:12.707Z,30.77
2016-07-29T15:29:12.000Z,31.54
2016-07-29T15:30:12.801Z,31.64
2016-07-29T15:31:12.064Z,32.24
2016-07-29T15:32:12.102Z,32.53
2016-07-29T15:33:12.133Z,32.32
2016-07-29T15:34:12.166Z,32.62
2016-07-29T15:35:12.201Z,32.91
2016-07-29T15:36:12.232Z,33.59
2016-07-29T15:37:12.268Z,33.4
2016-07-29T15:38:12.298Z,33.89
2016-07-29T15:39:12.334Z,33.59
2016-07-29T15:40:12.375Z,33.48
2016-07-29T15:41:12.397Z,33.58
2016-07-29T15:42:12.520Z,33.87
2016-07-29T15:43:12.534Z,34.06
2016-07-29T15:44:12.576Z,34.36
2016-07-29T15:45:12.587Z,33.97
2016-07-29T15:46:12.586Z,33.97
2016-07-29T15:47:12.609Z,34.26
2016-07-29T15:48:12.631Z,34.36
2016-07-29T15:49:12.670Z,34.05
2016-07-29T15:50:12.698Z,34.53
2016-07-29T15:51:12.759Z,34.53
2016-07-29T15:52:12.774Z,34.24
2016-07-29T15:53:12.797Z,34.92
2016-07-29T15:54:12.944Z,34.73
2016-07-29T15:55:13.574Z,34.83
2016-07-29T15:56:12.912Z,34.44
2016-07-29T15:57:12.945Z,34.32
2016-07-29T15:58:12.961Z,34.61
2016-07-29T15:59:13.110Z,34.61
2016-07-29T16:00:13.027Z,34.91
2016-07-29T16:01:13.059Z,34.73
2016-07-29T16:02:13.092Z,34.61
2016-07-29T16:03:13.126Z,34.81
2016-07-29T16:04:13.158Z,35.2
2016-07-29T16:05:13.190Z,35.1
2016-07-29T16:06:13.932Z,35.1
2016-07-29T16:07:13.260Z,35.1
2016-07-29T16:08:13.303Z,35.1
2016-07-29T16:09:13.324Z,34.91
2016-07-29T16:10:13.356Z,35
2016-07-29T16:11:13.387Z,35.2
2016-07-29T16:12:13.533Z,35.49
2016-07-29T16:13:13.504Z,35.47
2016-07-29T16:14:13.484Z,35.47
2016-07-29T16:15:13.519Z,35.38
2016-07-29T16:16:13.552Z,35.38
2016-07-29T16:17:13.584Z,35.57
2016-07-29T16:18:13.619Z,35.67
2016-07-29T16:19:13.651Z,35.77
2016-07-29T16:20:13.687Z,35.86
2016-07-29T16:21:13.716Z,35.96
2016-07-29T16:22:13.745Z,35.75
2016-07-29T16:23:13.781Z,35.77
2016-07-29T16:24:13.810Z,35.65
2016-07-29T16:25:13.849Z,35.75
2016-07-29T16:26:13.875Z,35.75
2016-07-29T16:27:13.910Z,35.85
2016-07-29T16:28:14.647Z,35.85
2016-07-29T16:29:14.013Z,35.75
2016-07-29T16:30:14.120Z,36.04
2016-07-29T16:31:14.044Z,35.65
2016-07-29T16:32:14.069Z,36.33
2016-07-29T16:33:14.102Z,35.94
2016-07-29T16:34:14.133Z,36.02
2016-07-29T16:35:14.166Z,35.83
2016-07-29T16:36:14.207Z,36.72
2016-07-29T16:37:14.228Z,36.51
2016-07-29T16:38:14.263Z,37
2016-07-29T16:39:14.410Z,37.19
2016-07-29T16:40:14.326Z,37.19
2016-07-29T16:41:14.407Z,37.19
2016-07-29T16:42:15.097Z,37.29
2016-07-29T16:43:14.420Z,36.9
2016-07-29T16:44:14.454Z,37.19
2016-07-29T16:45:14.487Z,37.08
2016-07-29T16:46:14.520Z,36.9
2016-07-29T16:47:14.552Z,37.66
2016-07-29T16:48:14.582Z,37.56
2016-07-29T16:49:14.614Z,37.66
2016-07-29T16:50:14.646Z,37.66
2016-07-29T16:51:14.680Z,37.56
2016-07-29T16:52:14.708Z,37.56
2016-07-29T16:53:14.743Z,37.66
2016-07-29T16:54:14.774Z,37.66
2016-07-29T16:55:15.561Z,37.93
2016-07-29T16:56:14.883Z,37.45
2016-07-29T16:57:14.867Z,37.74
2016-07-29T16:58:15.645Z,37.35
2016-07-29T16:59:14.985Z,37.74
2016-07-29T17:00:14.962Z,38.03
2016-07-29T17:01:14.994Z,38.13
2016-07-29T17:02:15.030Z,37.93
2016-07-29T17:03:15.058Z,38.03
2016-07-29T17:04:15.800Z,37.93
2016-07-29T17:05:15.126Z,38.03
2016-07-29T17:06:15.156Z,37.84
2016-07-29T17:07:15.185Z,37.26
2016-07-29T17:08:15.924Z,37.93
2016-07-29T17:09:15.248Z,38.13
2016-07-29T17:10:15.390Z,38.42
2016-07-29T17:11:15.397Z,38.42
2016-07-29T17:12:16.101Z,38.13
2016-07-29T17:13:16.201Z,38.31
2016-07-29T17:14:15.525Z,38.11
2016-07-29T17:15:15.434Z,38.31
2016-07-29T17:16:15.581Z,38.21
2016-07-29T17:17:15.497Z,38.21
2016-07-29T17:18:15.527Z,38.11
2016-07-29T17:19:15.560Z,37.82
2016-07-29T17:20:15.591Z,38.11
2016-07-29T17:21:15.624Z,38.6
2016-07-29T17:22:15.653Z,38.6
2016-07-29T17:23:16.405Z,38.5
2016-07-29T17:24:15.714Z,38.5
2016-07-29T17:25:15.745Z,38.6
2016-07-29T17:26:15.777Z,38.79
2016-07-29T17:27:15.808Z,38.7
2016-07-29T17:28:15.840Z,38.79
2016-07-29T17:29:15.870Z,38.98
2016-07-29T17:30:15.904Z,38.89
2016-07-29T17:31:15.933Z,38.87
2016-07-29T17:32:15.962Z,38.87
2016-07-29T17:33:15.994Z,38.87
2016-07-29T17:34:16.025Z,38.77
2016-07-29T17:35:16.172Z,38.67
2016-07-29T17:36:16.215Z,38.67
2016-07-29T17:37:16.224Z,38.87
2016-07-29T17:38:16.153Z,38.96
2016-07-29T17:39:16.190Z,39.06
2016-07-29T17:40:16.211Z,38.87
2016-07-29T17:41:16.242Z,38.87
2016-07-29T17:42:16.272Z,38.96
2016-07-29T17:43:16.304Z,39.14
2016-07-29T17:44:16.335Z,39.16
2016-07-29T17:45:16.364Z,39.43
2016-07-29T17:46:16.396Z,39.55
2016-07-29T17:47:16.433Z,39.45
2016-07-29T17:48:16.457Z,39.45
2016-07-29T17:49:16.489Z,39.62
2016-07-29T17:50:16.527Z,39.62
2016-07-29T17:51:16.550Z,39.62
2016-07-29T17:52:16.584Z,39.92
2016-07-29T17:53:16.731Z,40.01
2016-07-29T17:54:16.646Z,40.11
2016-07-29T17:55:16.788Z,40.21
2016-07-29T17:56:16.703Z,39.92
2016-07-29T17:57:16.847Z,40.01
2016-07-29T17:58:16.766Z,40.21
2016-07-29T17:59:16.915Z,40.01
2016-07-29T18:00:16.843Z,40.11
2016-07-29T18:01:16.856Z,40.31
2016-07-29T18:02:17.009Z,40.41
2016-07-29T18:03:16.918Z,40.5
2016-07-29T18:04:16.953Z,40.5